createdAt,value
2024-05-09T00:00:38.908Z,8.8
2024-05-09T00:01:37.720Z,8.8
2024-05-09T00:02:37.742Z,8.7
2024-05-09T00:03:37.678Z,8.7
2024-05-09T00:04:37.688Z,8.7
2024-05-09T00:05:37.781Z,8.7
2024-05-09T00:06:39.606Z,8.7
2024-05-09T00:07:43.242Z,8.7
2024-05-09T00:08:45.461Z,8.7
2024-05-09T00:09:37.656Z,8.6
2024-05-09T00:10:38.508Z,8.6
2024-05-09T00:11:37.749Z,8.6
2024-05-09T00:12:37.661Z,8.6
2024-05-09T00:13:37.655Z,8.6
2024-05-09T00:14:37.679Z,8.5
2024-05-09T00:15:37.672Z,8.5
2024-05-09T00:16:37.659Z,8.5
2024-05-09T00:17:37.740Z,8.5
2024-05-09T00:18:37.704Z,8.5
2024-05-09T00:19:37.681Z,8.5
2024-05-09T00:20:39.565Z,8.5
2024-05-09T00:21:37.662Z,8.4
2024-05-09T00:22:37.646Z,8.4
2024-05-09T00:23:37.858Z,8.4
2024-05-09T00:25:37.660Z,8.4
2024-05-09T00:26:37.729Z,8.4
2024-05-09T00:27:40.107Z,8.4
2024-05-09T00:28:42.922Z,8.4
2024-05-09T00:29:45.571Z,8.3
2024-05-09T00:31:37.651Z,8.3
2024-05-09T00:32:37.759Z,8.3
2024-05-09T00:33:37.843Z,8.2
2024-05-09T00:34:37.684Z,8.2
2024-05-09T00:35:37.902Z,8.2
2024-05-09T00:36:37.649Z,8.2
2024-05-09T00:37:37.644Z,8.1
2024-05-09T00:38:37.732Z,8.1
2024-05-09T00:39:37.670Z,8.1
2024-05-09T00:40:38.867Z,8.1
2024-05-09T00:41:37.679Z,8.1
2024-05-09T00:42:37.654Z,8
2024-05-09T00:43:37.657Z,8
2024-05-09T00:44:37.903Z,8
2024-05-09T00:45:37.649Z,7.9
2024-05-09T00:46:37.654Z,8
2024-05-09T00:47:37.725Z,7.9
2024-05-09T00:48:40.164Z,7.9
2024-05-09T00:49:43.234Z,7.9
2024-05-09T00:50:45.783Z,7.9
2024-05-09T00:51:37.655Z,7.9
2024-05-09T00:52:37.646Z,7.9
2024-05-09T00:53:37.788Z,7.9
2024-05-09T00:54:37.653Z,7.8
2024-05-09T00:55:37.669Z,7.8
2024-05-09T00:56:37.684Z,7.8
2024-05-09T00:57:37.641Z,7.8
2024-05-09T00:58:37.641Z,7.8
2024-05-09T00:59:37.703Z,7.8
2024-05-09T01:00:39.288Z,7.8
2024-05-09T01:01:37.699Z,7.8
2024-05-09T01:02:37.718Z,7.8
2024-05-09T01:03:37.785Z,7.8
2024-05-09T01:04:37.707Z,7.7
2024-05-09T01:05:38.004Z,7.8
2024-05-09T01:06:37.652Z,7.7
2024-05-09T01:07:37.661Z,7.7
2024-05-09T01:08:37.734Z,7.7
2024-05-09T01:09:39.960Z,7.7
2024-05-09T01:10:45.310Z,7.7
2024-05-09T01:11:45.869Z,7.7
2024-05-09T01:12:37.710Z,7.7
2024-05-09T01:13:37.652Z,7.7
2024-05-09T01:14:37.712Z,7.7
2024-05-09T01:15:37.661Z,7.7
2024-05-09T01:16:37.659Z,7.7
2024-05-09T01:17:37.848Z,7.7
2024-05-09T01:18:37.708Z,7.7
2024-05-09T01:19:37.714Z,7.7
2024-05-09T01:20:40.690Z,7.7
2024-05-09T01:21:37.634Z,7.6
2024-05-09T01:22:37.662Z,7.6
2024-05-09T01:23:37.728Z,7.6
2024-05-09T01:24:37.653Z,7.6
2024-05-09T01:25:37.690Z,7.5
2024-05-09T01:26:37.726Z,7.5
2024-05-09T01:27:37.653Z,7.5
2024-05-09T01:28:37.661Z,7.5
2024-05-09T01:30:40.219Z,7.5
2024-05-09T01:31:43.316Z,7.5
2024-05-09T01:32:45.972Z,7.4
2024-05-09T01:33:37.874Z,7.4
2024-05-09T01:34:37.646Z,7.4
2024-05-09T01:35:37.936Z,7.4
2024-05-09T01:36:37.662Z,7.4
2024-05-09T01:38:37.661Z,7.3
2024-05-09T01:39:37.661Z,7.3
2024-05-09T01:40:39.205Z,7.3
2024-05-09T01:41:37.674Z,7.3
2024-05-09T01:42:37.664Z,7.3
2024-05-09T01:43:37.650Z,7.3
2024-05-09T01:44:37.653Z,7.3
2024-05-09T01:45:37.646Z,7.3
2024-05-09T01:46:37.674Z,7.3
2024-05-09T01:47:37.709Z,7.3
2024-05-09T01:48:37.775Z,7.2
2024-05-09T01:49:37.690Z,7.2
2024-05-09T01:50:40.070Z,7.2
2024-05-09T01:51:40.216Z,7.2
2024-05-09T01:52:43.170Z,7.2
2024-05-09T01:53:45.995Z,7.2
2024-05-09T01:54:37.647Z,7.2
2024-05-09T01:55:37.637Z,7.2
2024-05-09T01:56:37.696Z,7.2
2024-05-09T01:57:37.652Z,7.2
2024-05-09T01:58:37.654Z,7.2
2024-05-09T01:59:37.729Z,7.2
2024-05-09T02:00:39.652Z,7.2
2024-05-09T02:01:54.857Z,7.2
2024-05-09T02:02:37.712Z,7.1
2024-05-09T02:03:37.798Z,7.1
2024-05-09T02:04:37.699Z,7.1
2024-05-09T02:05:37.726Z,7.1
2024-05-09T02:06:37.668Z,7.1
2024-05-09T02:07:37.661Z,7.1
2024-05-09T02:08:37.688Z,7.1
2024-05-09T02:09:37.645Z,7.1
2024-05-09T02:10:37.660Z,7.1
2024-05-09T02:11:37.693Z,7.1
2024-05-09T02:12:40.242Z,7.1
2024-05-09T02:13:43.327Z,7.1
2024-05-09T02:14:46.147Z,7
2024-05-09T02:15:37.658Z,7
2024-05-09T02:16:37.651Z,7.1
2024-05-09T02:17:37.861Z,7.1
2024-05-09T02:18:37.795Z,7
2024-05-09T02:19:37.680Z,7
2024-05-09T02:20:37.689Z,7
2024-05-09T02:21:37.664Z,7
2024-05-09T02:22:37.709Z,7
2024-05-09T02:23:37.714Z,7
2024-05-09T02:24:37.658Z,7
2024-05-09T02:25:37.678Z,7
2024-05-09T02:26:37.827Z,6.9
2024-05-09T02:28:37.663Z,6.9
2024-05-09T02:30:39.571Z,6.9
2024-05-09T02:31:37.643Z,6.9
2024-05-09T02:32:37.859Z,6.9
2024-05-09T02:34:39.486Z,6.9
2024-05-09T02:35:43.071Z,6.9
2024-05-09T02:36:44.997Z,6.9
2024-05-09T02:37:37.668Z,6.9
2024-05-09T02:38:37.725Z,6.9
2024-05-09T02:39:37.655Z,6.9
2024-05-09T02:40:38.734Z,6.9
2024-05-09T02:41:37.917Z,6.8
2024-05-09T02:42:37.672Z,6.8
2024-05-09T02:43:37.654Z,6.8
2024-05-09T02:44:37.681Z,6.8
2024-05-09T02:45:37.655Z,6.8
2024-05-09T02:46:37.649Z,6.8
2024-05-09T02:47:37.793Z,6.8
2024-05-09T02:49:37.714Z,6.8
2024-05-09T02:50:39.084Z,6.8
2024-05-09T02:51:37.657Z,6.8
2024-05-09T02:52:37.680Z,6.8
2024-05-09T02:54:37.641Z,6.8
2024-05-09T02:55:39.483Z,6.8
2024-05-09T02:56:42.365Z,6.8
2024-05-09T02:57:45.115Z,6.8
2024-05-09T02:59:37.671Z,6.8
2024-05-09T03:00:39.539Z,6.8
2024-05-09T03:01:37.724Z,6.8
2024-05-09T03:02:38.057Z,6.8
2024-05-09T03:04:37.680Z,6.8
2024-05-09T03:05:37.684Z,6.7
2024-05-09T03:06:37.642Z,6.7
2024-05-09T03:07:37.671Z,6.7
2024-05-09T03:08:37.748Z,6.7
2024-05-09T03:09:37.662Z,6.7
2024-05-09T03:10:38.551Z,6.7
2024-05-09T03:11:37.681Z,6.7
2024-05-09T03:12:39.189Z,6.7
2024-05-09T03:14:37.672Z,6.6
2024-05-09T03:15:37.672Z,6.6
2024-05-09T03:16:39.431Z,6.6
2024-05-09T03:17:42.675Z,6.6
2024-05-09T03:18:45.258Z,6.6
2024-05-09T03:20:37.683Z,6.6
2024-05-09T03:21:37.644Z,6.6
2024-05-09T03:22:37.645Z,6.6
2024-05-09T03:23:38.081Z,6.6
2024-05-09T03:24:37.646Z,6.6
2024-05-09T03:25:37.674Z,6.6
2024-05-09T03:26:37.692Z,6.6
2024-05-09T03:27:37.651Z,6.6
2024-05-09T03:28:37.634Z,6.6
2024-05-09T03:29:37.707Z,6.6
2024-05-09T03:30:40.421Z,6.6
2024-05-09T03:31:37.680Z,6.6
2024-05-09T03:32:37.743Z,6.6
2024-05-09T03:33:37.862Z,6.6
2024-05-09T03:34:37.641Z,6.6
2024-05-09T03:35:37.715Z,6.6
2024-05-09T03:36:37.679Z,6.6
2024-05-09T03:37:39.636Z,6.6
2024-05-09T03:38:42.540Z,6.6
2024-05-09T03:39:45.323Z,6.6
2024-05-09T03:40:37.646Z,6.5
2024-05-09T03:41:37.691Z,6.5
2024-05-09T03:42:37.664Z,6.5
2024-05-09T03:43:37.663Z,6.5
2024-05-09T03:44:37.661Z,6.5
2024-05-09T03:45:37.665Z,6.4
2024-05-09T03:46:37.647Z,6.4
2024-05-09T03:47:37.735Z,6.4
2024-05-09T03:48:37.713Z,6.4
2024-05-09T03:49:37.677Z,6.4
2024-05-09T03:50:38.006Z,6.4
2024-05-09T03:51:37.644Z,6.4
2024-05-09T03:52:37.666Z,6.4
2024-05-09T03:53:37.662Z,6.3
2024-05-09T03:54:37.663Z,6.3
2024-05-09T03:55:37.650Z,6.3
2024-05-09T03:56:37.707Z,6.3
2024-05-09T03:57:37.679Z,6.3
2024-05-09T03:58:39.632Z,6.3
2024-05-09T03:59:42.548Z,6.3
2024-05-09T04:00:43.662Z,6.3
2024-05-09T04:02:37.931Z,6.3
2024-05-09T04:03:37.710Z,6.3
2024-05-09T04:04:37.708Z,6.3
2024-05-09T04:05:37.751Z,6.3
2024-05-09T04:07:37.657Z,6.4
2024-05-09T04:09:37.666Z,6.3
2024-05-09T04:10:37.792Z,6.4
2024-05-09T04:11:37.770Z,6.4
2024-05-09T04:12:37.768Z,6.4
2024-05-09T04:14:37.680Z,6.4
2024-05-09T04:15:37.675Z,6.4
2024-05-09T04:17:37.832Z,6.4
2024-05-09T04:18:37.740Z,6.5
2024-05-09T04:19:39.815Z,6.5
2024-05-09T04:20:42.741Z,6.5
2024-05-09T04:21:45.538Z,6.5
2024-05-09T04:22:37.651Z,6.5
2024-05-09T04:23:37.694Z,6.6
2024-05-09T04:24:37.657Z,6.6
2024-05-09T04:25:37.812Z,6.6
2024-05-09T04:26:37.701Z,6.6
2024-05-09T04:27:37.673Z,6.6
2024-05-09T04:29:37.698Z,6.6
2024-05-09T04:30:39.291Z,6.6
2024-05-09T04:31:37.652Z,6.6
2024-05-09T04:32:37.758Z,6.7
2024-05-09T04:34:37.682Z,6.8
2024-05-09T04:35:37.715Z,6.8
2024-05-09T04:36:39.635Z,6.8
2024-05-09T04:37:37.663Z,6.9
2024-05-09T04:38:37.735Z,6.9
2024-05-09T04:39:37.676Z,6.9
2024-05-09T04:40:39.813Z,6.9
2024-05-09T04:41:42.745Z,7
2024-05-09T04:42:45.590Z,7
2024-05-09T04:43:37.654Z,7
2024-05-09T04:44:37.696Z,7.1
2024-05-09T04:45:37.652Z,7.1
2024-05-09T04:46:37.660Z,7.2
2024-05-09T04:47:37.834Z,7.2
2024-05-09T04:49:37.690Z,7.3
2024-05-09T04:50:38.837Z,7.4
2024-05-09T04:51:37.646Z,7.5
2024-05-09T04:52:37.666Z,7.7
2024-05-09T04:53:37.760Z,7.7
2024-05-09T04:54:37.658Z,7.8
2024-05-09T04:55:37.724Z,7.9
2024-05-09T04:56:37.723Z,8
2024-05-09T04:57:37.873Z,8
2024-05-09T04:58:37.693Z,8.1
2024-05-09T04:59:37.782Z,8.1
2024-05-09T05:00:38.406Z,8.2
2024-05-09T05:01:39.858Z,8.2
2024-05-09T05:02:43.777Z,8.2
2024-05-09T05:03:45.722Z,8.2
2024-05-09T05:04:37.680Z,8.3
2024-05-09T05:05:37.857Z,8.3
2024-05-09T05:06:37.637Z,8.3
2024-05-09T05:07:37.656Z,8.4
2024-05-09T05:08:37.720Z,8.4
2024-05-09T05:09:37.657Z,8.4
2024-05-09T05:11:37.757Z,8.4
2024-05-09T05:12:37.646Z,8.4
2024-05-09T05:13:40.207Z,8.4
2024-05-09T05:14:37.660Z,8.4
2024-05-09T05:15:37.659Z,8.4
2024-05-09T05:16:37.636Z,8.4
2024-05-09T05:17:37.992Z,8.4
2024-05-09T05:18:38.151Z,8.4
2024-05-09T05:19:37.770Z,8.4
2024-05-09T05:20:37.703Z,8.5
2024-05-09T05:21:37.722Z,8.5
2024-05-09T05:22:40.369Z,8.5
2024-05-09T05:23:43.087Z,8.5
2024-05-09T05:24:45.747Z,8.5
2024-05-09T05:26:38.066Z,8.6
2024-05-09T05:27:37.657Z,8.6
2024-05-09T05:28:37.654Z,8.7
2024-05-09T05:29:37.780Z,8.7
2024-05-09T05:31:37.741Z,8.8
2024-05-09T05:33:37.758Z,8.9
2024-05-09T05:34:37.696Z,9
2024-05-09T05:35:37.702Z,9
2024-05-09T05:36:37.641Z,9
2024-05-09T05:37:37.684Z,9
2024-05-09T05:38:37.724Z,9
2024-05-09T05:39:37.710Z,9.1
2024-05-09T05:41:37.697Z,9.2
2024-05-09T05:42:37.649Z,9.2
2024-05-09T05:43:37.776Z,9.2
2024-05-09T05:44:38.336Z,9.3
2024-05-09T05:45:41.313Z,9.3
2024-05-09T05:46:44.017Z,9.4
2024-05-09T05:47:47.165Z,9.4
2024-05-09T05:48:37.983Z,9.5
2024-05-09T05:49:37.812Z,9.5
2024-05-09T05:50:38.267Z,9.6
2024-05-09T05:51:37.675Z,9.7
2024-05-09T05:52:37.796Z,9.7
2024-05-09T05:53:37.722Z,9.7
2024-05-09T05:54:37.666Z,9.8
2024-05-09T05:55:37.815Z,9.8
2024-05-09T05:56:37.793Z,9.8
2024-05-09T05:57:37.651Z,9.9
2024-05-09T05:59:37.796Z,10
2024-05-09T06:00:39.073Z,10
2024-05-09T06:01:37.848Z,10.1
2024-05-09T06:02:37.713Z,10.2
2024-05-09T06:03:37.779Z,10.3
2024-05-09T06:04:37.849Z,10.4
2024-05-09T06:05:37.763Z,10.5
2024-05-09T06:06:39.786Z,10.5
2024-05-09T06:07:42.407Z,10.6
2024-05-09T06:08:45.641Z,10.7
2024-05-09T06:09:37.752Z,10.8
2024-05-09T06:10:39.031Z,10.8
2024-05-09T06:11:37.719Z,10.9
2024-05-09T06:12:37.725Z,11
2024-05-09T06:13:37.995Z,11.1
2024-05-09T06:14:37.684Z,11.1
2024-05-09T06:15:37.699Z,11.2
2024-05-09T06:16:37.655Z,11.2
2024-05-09T06:17:37.757Z,11.3
2024-05-09T06:18:37.958Z,11.3
2024-05-09T06:19:37.967Z,11.3
2024-05-09T06:20:38.263Z,11.4
2024-05-09T06:21:37.683Z,11.4
2024-05-09T06:22:37.762Z,11.5
2024-05-09T06:23:38.026Z,11.5
2024-05-09T06:24:37.796Z,11.5
2024-05-09T06:25:37.689Z,11.6
2024-05-09T06:26:38.442Z,11.6
2024-05-09T06:27:41.518Z,11.6
2024-05-09T06:28:44.220Z,11.6
2024-05-09T06:29:47.164Z,11.7
2024-05-09T06:31:37.793Z,11.7
2024-05-09T06:32:37.941Z,11.7
2024-05-09T06:33:37.778Z,11.7
2024-05-09T06:34:37.777Z,11.8
2024-05-09T06:36:37.659Z,11.8
2024-05-09T06:37:37.727Z,11.9
2024-05-09T06:38:37.945Z,11.9
2024-05-09T06:39:37.901Z,11.9
2024-05-09T06:40:39.092Z,12
2024-05-09T06:41:37.729Z,12
2024-05-09T06:42:37.798Z,12
2024-05-09T06:43:37.800Z,12.1
2024-05-09T06:44:37.825Z,12.1
2024-05-09T06:46:37.770Z,12.1
2024-05-09T06:47:38.976Z,12.1
2024-05-09T06:48:42.078Z,12.2
2024-05-09T06:49:44.769Z,12.2
2024-05-09T06:50:47.332Z,12.3
2024-05-09T06:51:37.861Z,12.3
2024-05-09T06:52:37.682Z,12.3
2024-05-09T06:53:37.860Z,12.4
2024-05-09T06:54:37.836Z,12.4
2024-05-09T06:55:38.050Z,12.5
2024-05-09T06:56:37.923Z,12.5
2024-05-09T06:58:37.838Z,12.6
2024-05-09T06:59:37.878Z,12.6
2024-05-09T07:01:37.791Z,12.7
2024-05-09T07:02:38.115Z,12.7
2024-05-09T07:03:37.957Z,12.8
2024-05-09T07:04:37.875Z,12.8
2024-05-09T07:05:37.895Z,12.8
2024-05-09T07:06:37.928Z,12.8
2024-05-09T07:07:37.929Z,12.9
2024-05-09T07:08:38.944Z,12.9
2024-05-09T07:09:41.585Z,12.9
2024-05-09T07:10:44.566Z,13
2024-05-09T07:11:47.389Z,13
2024-05-09T07:12:37.809Z,13
2024-05-09T07:13:37.919Z,13
2024-05-09T07:14:38.433Z,13.1
2024-05-09T07:15:37.714Z,13.1
2024-05-09T07:16:37.702Z,13.1
2024-05-09T07:17:37.824Z,13.1
2024-05-09T07:18:38.098Z,13.1
2024-05-09T07:19:37.834Z,13.2
2024-05-09T07:20:37.965Z,13.2
2024-05-09T07:22:38.044Z,13.3
2024-05-09T07:23:37.798Z,13.3
2024-05-09T07:24:37.975Z,13.4
2024-05-09T07:26:38.018Z,13.4
2024-05-09T07:27:37.676Z,13.5
2024-05-09T07:28:37.668Z,13.5
2024-05-09T07:29:39.117Z,13.5
2024-05-09T07:30:41.612Z,13.5
2024-05-09T07:31:44.470Z,13.6
2024-05-09T07:32:47.663Z,13.6
2024-05-09T07:33:37.837Z,13.7
2024-05-09T07:34:37.828Z,13.7
2024-05-09T07:35:37.948Z,13.7
2024-05-09T07:36:37.719Z,13.7
2024-05-09T07:37:37.803Z,13.8
2024-05-09T07:38:37.884Z,13.8
2024-05-09T07:39:37.888Z,13.9
2024-05-09T07:40:37.704Z,14
2024-05-09T07:41:37.882Z,14.1
2024-05-09T07:43:38.100Z,14.2
2024-05-09T07:45:45.552Z,14.3
2024-05-09T07:47:13.521Z,14.3
2024-05-09T07:48:27.145Z,14.4
2024-05-09T07:53:21.036Z,14.5
2024-05-09T07:53:49.281Z,14.5
2024-05-09T07:54:37.966Z,14.6
2024-05-09T07:55:37.959Z,14.6
2024-05-09T07:56:37.943Z,14.7
2024-05-09T07:57:37.760Z,14.7
2024-05-09T07:59:38.076Z,14.8
2024-05-09T08:00:37.942Z,14.8
2024-05-09T08:01:37.990Z,14.9
2024-05-09T08:02:37.698Z,14.9
2024-05-09T08:03:37.838Z,14.9
2024-05-09T08:04:38.394Z,15
2024-05-09T08:05:37.726Z,15
2024-05-09T08:06:37.766Z,15
2024-05-09T08:07:37.762Z,15
2024-05-09T08:08:37.801Z,15.1
2024-05-09T08:09:38.567Z,15.1
2024-05-09T08:10:37.747Z,15.2
2024-05-09T08:11:39.035Z,15.2
2024-05-09T08:12:41.990Z,15.2
2024-05-09T08:13:44.778Z,15.2
2024-05-09T08:14:47.655Z,15.3
2024-05-09T08:15:37.803Z,15.3
2024-05-09T08:16:37.787Z,15.3
2024-05-09T08:18:38.070Z,15.4
2024-05-09T08:19:37.944Z,15.4
2024-05-09T08:20:37.818Z,15.4
2024-05-09T08:21:37.846Z,15.5
2024-05-09T08:22:37.946Z,15.5
2024-05-09T08:23:37.657Z,15.5
2024-05-09T08:24:37.772Z,15.5
2024-05-09T08:26:37.660Z,15.6
2024-05-09T08:27:37.681Z,15.6
2024-05-09T08:28:37.966Z,15.6
2024-05-09T08:29:37.650Z,15.7
2024-05-09T08:30:38.879Z,15.7
2024-05-09T08:31:37.881Z,15.7
2024-05-09T08:32:40.148Z,15.7
2024-05-09T08:33:42.199Z,15.8
2024-05-09T08:34:44.831Z,15.8
2024-05-09T08:35:47.778Z,15.8
2024-05-09T08:37:39.933Z,15.9
2024-05-09T08:38:37.834Z,16
2024-05-09T08:39:37.671Z,16
2024-05-09T08:40:38.276Z,16
2024-05-09T08:41:37.801Z,16.1
2024-05-09T08:42:37.928Z,16.1
2024-05-09T08:43:39.803Z,16.1
2024-05-09T08:44:37.928Z,16.1
2024-05-09T08:45:37.696Z,16.1
2024-05-09T08:46:38.258Z,16.2
2024-05-09T08:47:37.759Z,16.2
2024-05-09T08:48:37.808Z,16.3
2024-05-09T08:49:39.910Z,16.3
2024-05-09T08:51:38.006Z,16.4
2024-05-09T08:52:37.959Z,16.4
2024-05-09T08:53:39.107Z,16.4
2024-05-09T08:54:42.202Z,16.5
2024-05-09T08:55:44.908Z,16.6
2024-05-09T08:57:37.718Z,16.6
2024-05-09T08:58:37.683Z,16.7
2024-05-09T08:59:37.650Z,16.7
2024-05-09T09:00:38.047Z,16.7
2024-05-09T09:01:38.095Z,16.7
2024-05-09T09:02:38.025Z,16.8
2024-05-09T09:03:37.819Z,16.8
2024-05-09T09:04:37.991Z,16.8
2024-05-09T09:05:37.816Z,16.8
2024-05-09T09:06:37.711Z,16.9
2024-05-09T09:07:37.658Z,16.9
2024-05-09T09:08:37.664Z,16.9
2024-05-09T09:09:37.657Z,17
2024-05-09T09:10:38.005Z,17
2024-05-09T09:12:38.061Z,17.2
2024-05-09T09:13:37.932Z,17.3
2024-05-09T09:14:39.576Z,17.3
2024-05-09T09:15:42.359Z,17.3
2024-05-09T09:16:45.261Z,17.3
2024-05-09T09:17:37.743Z,17.4
2024-05-09T09:18:37.835Z,17.4
2024-05-09T09:19:37.871Z,17.4
2024-05-09T09:20:37.985Z,17.5
2024-05-09T09:21:38.138Z,17.5
2024-05-09T09:22:38.039Z,17.5
2024-05-09T09:23:38.090Z,17.5
2024-05-09T09:25:37.936Z,17.6
2024-05-09T09:26:38.099Z,17.6
2024-05-09T09:27:38.036Z,17.6
2024-05-09T09:28:37.872Z,17.7
2024-05-09T09:29:37.942Z,17.7
2024-05-09T09:30:38.245Z,17.7
2024-05-09T09:31:38.053Z,17.7
2024-05-09T09:32:37.700Z,17.8
2024-05-09T09:33:38.233Z,17.8
2024-05-09T09:34:37.652Z,17.8
2024-05-09T09:35:39.648Z,17.8
2024-05-09T09:36:42.576Z,17.9
2024-05-09T09:37:45.250Z,17.9
2024-05-09T09:38:37.925Z,17.9
2024-05-09T09:39:37.661Z,18
2024-05-09T09:40:39.255Z,18
2024-05-09T09:41:38.070Z,18
2024-05-09T09:42:38.145Z,18.1
2024-05-09T09:43:38.046Z,18.1
2024-05-09T09:44:39.672Z,18.1
2024-05-09T09:45:37.997Z,18.1
2024-05-09T09:46:38.046Z,18.2
2024-05-09T09:47:37.751Z,18.2
2024-05-09T09:48:38.242Z,18.2
2024-05-09T09:49:38.012Z,18.2
2024-05-09T09:50:37.970Z,18.3
2024-05-09T09:51:38.081Z,18.3
2024-05-09T09:52:37.658Z,18.3
2024-05-09T09:53:38.168Z,18.3
2024-05-09T09:54:37.721Z,18.3
2024-05-09T09:55:37.992Z,18.3
2024-05-09T09:56:38.019Z,18.3
2024-05-09T09:57:38.856Z,18.3
2024-05-09T09:58:41.821Z,18.3
2024-05-09T09:59:44.623Z,18.4
2024-05-09T10:00:47.677Z,18.4
2024-05-09T10:01:37.708Z,18.4
2024-05-09T10:02:38.064Z,18.4
2024-05-09T10:03:38.355Z,18.5
2024-05-09T10:05:38.403Z,18.5
2024-05-09T10:06:37.668Z,18.5
2024-05-09T10:07:37.665Z,18.7
2024-05-09T10:08:38.160Z,18.7
2024-05-09T10:09:37.653Z,18.8
2024-05-09T10:10:38.122Z,18.8
2024-05-09T10:11:41.803Z,18.8
2024-05-09T10:12:38.069Z,18.8
2024-05-09T10:13:38.111Z,18.9
2024-05-09T10:14:38.124Z,18.9
2024-05-09T10:15:37.679Z,18.9
2024-05-09T10:16:37.651Z,19
2024-05-09T10:17:37.746Z,19
2024-05-09T10:18:39.478Z,19
2024-05-09T10:19:42.343Z,19
2024-05-09T10:20:44.807Z,19
2024-05-09T10:21:48.015Z,19.1
2024-05-09T10:22:38.082Z,19.1
2024-05-09T10:23:38.093Z,19.1
2024-05-09T10:24:37.660Z,19.1
2024-05-09T10:25:37.690Z,19.1
2024-05-09T10:26:37.653Z,19.2
2024-05-09T10:27:37.673Z,19.2
2024-05-09T10:28:37.664Z,19.2
2024-05-09T10:29:37.652Z,19.2
2024-05-09T10:30:38.156Z,19.3
2024-05-09T10:31:37.714Z,19.3
2024-05-09T10:32:37.704Z,19.3
2024-05-09T10:33:37.844Z,19.3
2024-05-09T10:34:37.676Z,19.3
2024-05-09T10:35:37.641Z,19.3
2024-05-09T10:36:37.678Z,19.3
2024-05-09T10:37:37.681Z,19.4
2024-05-09T10:38:37.657Z,19.4
2024-05-09T10:39:39.276Z,19.4
2024-05-09T10:40:42.126Z,19.4
2024-05-09T10:41:44.803Z,19.4
2024-05-09T10:42:47.854Z,19.5
2024-05-09T10:43:37.665Z,19.5
2024-05-09T10:44:37.650Z,19.5
2024-05-09T10:45:37.684Z,19.5
2024-05-09T10:46:38.150Z,19.5
2024-05-09T10:47:37.677Z,19.5
2024-05-09T10:48:37.765Z,19.7
2024-05-09T10:49:37.675Z,19.7
2024-05-09T10:50:37.664Z,19.7
2024-05-09T10:51:37.668Z,19.8
2024-05-09T10:52:37.656Z,19.8
2024-05-09T10:53:37.684Z,19.8
2024-05-09T10:55:37.658Z,19.8
2024-05-09T10:56:37.647Z,19.9
2024-05-09T10:57:37.666Z,19.9
2024-05-09T10:58:37.687Z,19.9
2024-05-09T10:59:37.656Z,20
2024-05-09T11:00:38.745Z,20
2024-05-09T11:01:41.732Z,20
2024-05-09T11:02:44.727Z,19.9
2024-05-09T11:03:38.073Z,19.9
2024-05-09T11:04:37.717Z,19.9
2024-05-09T11:05:37.787Z,20
2024-05-09T11:06:37.684Z,20
2024-05-09T11:07:37.687Z,20
2024-05-09T11:08:37.669Z,20
2024-05-09T11:09:37.652Z,20
2024-05-09T11:10:37.695Z,19.9
2024-05-09T11:11:37.689Z,19.9
2024-05-09T11:12:37.699Z,20
2024-05-09T11:13:37.761Z,20
2024-05-09T11:14:37.661Z,20
2024-05-09T11:15:37.697Z,20
2024-05-09T11:16:37.644Z,20
2024-05-09T11:17:37.734Z,20.1
2024-05-09T11:18:38.960Z,20.1
2024-05-09T11:19:37.681Z,20.1
2024-05-09T11:20:37.718Z,20.1
2024-05-09T11:21:39.166Z,20.1
2024-05-09T11:22:42.397Z,20.2
2024-05-09T11:23:45.323Z,20.2
2024-05-09T11:25:37.641Z,20.2
2024-05-09T11:26:37.663Z,20.2
2024-05-09T11:27:37.678Z,20.2
2024-05-09T11:28:37.969Z,20.2
2024-05-09T11:29:37.643Z,20.2
2024-05-09T11:30:37.687Z,20.2
2024-05-09T11:31:37.663Z,20.2
2024-05-09T11:32:37.811Z,20.2
2024-05-09T11:33:37.782Z,20.2
2024-05-09T11:34:37.647Z,20.2
2024-05-09T11:35:37.670Z,20.2
2024-05-09T11:36:37.669Z,20.2
2024-05-09T11:37:37.656Z,20.2
2024-05-09T11:38:37.682Z,20.2
2024-05-09T11:39:37.685Z,20.3
2024-05-09T11:40:37.687Z,20.3
2024-05-09T11:41:37.664Z,20.3
2024-05-09T11:42:39.197Z,20.3
2024-05-09T11:43:42.442Z,20.5
2024-05-09T11:44:45.360Z,20.5
2024-05-09T11:45:37.680Z,20.6
2024-05-09T11:46:37.654Z,20.6
2024-05-09T11:47:37.728Z,20.7
2024-05-09T11:48:37.888Z,20.7
2024-05-09T11:49:38.003Z,20.8
2024-05-09T11:50:37.707Z,20.8
2024-05-09T11:51:37.712Z,20.8
2024-05-09T11:52:37.652Z,20.8
2024-05-09T11:53:37.718Z,20.8
2024-05-09T11:54:37.704Z,20.8
2024-05-09T11:55:37.656Z,20.8
2024-05-09T11:56:37.640Z,20.8
2024-05-09T11:57:37.732Z,20.8
2024-05-09T11:58:37.666Z,20.8
2024-05-09T11:59:37.649Z,20.8
2024-05-09T12:00:38.036Z,20.8
2024-05-09T12:01:37.764Z,20.8
2024-05-09T12:02:37.717Z,20.8
2024-05-09T12:03:39.432Z,20.8
2024-05-09T12:04:43.083Z,20.8
2024-05-09T12:05:45.408Z,20.8
2024-05-09T12:06:37.702Z,20.8
2024-05-09T12:07:37.652Z,20.8
2024-05-09T12:08:37.635Z,20.8
2024-05-09T12:09:37.678Z,20.8
2024-05-09T12:10:38.007Z,20.8
2024-05-09T12:12:37.708Z,20.8
2024-05-09T12:13:38.082Z,20.8
2024-05-09T12:14:37.654Z,20.8
2024-05-09T12:15:38.242Z,20.8
2024-05-09T12:16:37.777Z,20.8
2024-05-09T12:17:37.747Z,20.8
2024-05-09T12:18:37.797Z,20.7
2024-05-09T12:19:37.746Z,20.7
2024-05-09T12:20:39.099Z,20.7
2024-05-09T12:21:37.659Z,20.7
2024-05-09T12:22:37.695Z,20.7
2024-05-09T12:23:37.680Z,20.7
2024-05-09T12:24:39.563Z,20.7
2024-05-09T12:25:42.614Z,20.7
2024-05-09T12:26:45.431Z,20.7
2024-05-09T12:27:37.672Z,20.7
2024-05-09T12:28:37.657Z,20.8
2024-05-09T12:29:38.740Z,20.8
2024-05-09T12:30:39.307Z,20.8
2024-05-09T12:31:37.687Z,20.8
2024-05-09T12:32:37.703Z,20.8
2024-05-09T12:33:37.781Z,20.9
2024-05-09T12:34:37.712Z,20.9
2024-05-09T12:35:37.651Z,20.8
2024-05-09T12:36:37.690Z,20.9
2024-05-09T12:37:37.646Z,20.9
2024-05-09T12:38:37.670Z,20.8
2024-05-09T12:39:37.735Z,20.9
2024-05-09T12:40:38.529Z,20.9
2024-05-09T12:41:37.648Z,20.9
2024-05-09T12:42:37.681Z,20.9
2024-05-09T12:43:37.697Z,20.9
2024-05-09T12:44:37.649Z,21
2024-05-09T12:45:39.786Z,21
2024-05-09T12:46:42.616Z,21
2024-05-09T12:47:45.493Z,21
2024-05-09T12:48:38.106Z,21
2024-05-09T12:49:37.912Z,21
2024-05-09T12:50:37.687Z,21
2024-05-09T12:51:37.706Z,21
2024-05-09T12:52:37.663Z,21
2024-05-09T12:53:37.665Z,21
2024-05-09T12:54:37.653Z,21
2024-05-09T12:55:41.223Z,21
2024-05-09T12:56:37.663Z,21
2024-05-09T12:57:37.679Z,21
2024-05-09T12:58:37.665Z,21
2024-05-09T12:59:37.655Z,21
2024-05-09T13:00:37.744Z,21
2024-05-09T13:01:37.709Z,21
2024-05-09T13:02:37.800Z,21
2024-05-09T13:03:37.853Z,21
2024-05-09T13:04:37.788Z,21.2
2024-05-09T13:05:37.780Z,21
2024-05-09T13:06:37.732Z,21.2
2024-05-09T13:07:37.731Z,21.2
2024-05-09T13:08:40.786Z,21.2
2024-05-09T13:09:43.868Z,21.2
2024-05-09T13:10:46.767Z,21.2
2024-05-09T13:11:37.856Z,21.2
2024-05-09T13:12:37.705Z,21.2
2024-05-09T13:13:37.683Z,21.2
2024-05-09T13:14:37.675Z,21.2
2024-05-09T13:15:37.721Z,21.2
2024-05-09T13:16:37.724Z,21.2
2024-05-09T13:17:37.712Z,21.2
2024-05-09T13:18:37.710Z,21.2
2024-05-09T13:20:37.696Z,21.2
2024-05-09T13:21:37.683Z,21.2
2024-05-09T13:22:37.653Z,21.2
2024-05-09T13:23:37.667Z,21.3
2024-05-09T13:24:37.670Z,21.3
2024-05-09T13:25:37.964Z,21.4
2024-05-09T13:26:37.650Z,21.4
2024-05-09T13:27:37.678Z,21.4
2024-05-09T13:28:37.839Z,21.4
2024-05-09T13:29:44.125Z,21.5
2024-05-09T13:30:44.031Z,21.4
2024-05-09T13:31:46.797Z,21.4
2024-05-09T13:33:37.780Z,21.5
2024-05-09T13:34:37.693Z,21.5
2024-05-09T13:35:37.649Z,21.5
2024-05-09T13:36:37.696Z,21.5
2024-05-09T13:37:37.668Z,21.5
2024-05-09T13:38:37.651Z,21.6
2024-05-09T13:39:37.679Z,21.6
2024-05-09T13:40:37.680Z,21.6
2024-05-09T13:41:37.660Z,21.8
2024-05-09T13:42:37.654Z,21.8
2024-05-09T13:43:37.716Z,21.8
2024-05-09T13:44:37.649Z,21.9
2024-05-09T13:45:37.757Z,21.9
2024-05-09T13:46:37.661Z,21.9
2024-05-09T13:47:37.715Z,22
2024-05-09T13:48:37.774Z,22
2024-05-09T13:49:37.939Z,22
2024-05-09T13:50:41.011Z,22
2024-05-09T13:51:44.130Z,22
2024-05-09T13:52:46.809Z,22
2024-05-09T13:53:38.039Z,22
2024-05-09T13:54:37.698Z,22.1
2024-05-09T13:55:37.652Z,22.1
2024-05-09T13:56:37.654Z,22
2024-05-09T13:57:37.696Z,22
2024-05-09T13:58:37.662Z,22.1
2024-05-09T13:59:37.649Z,22
2024-05-09T14:00:42.498Z,22.1
2024-05-09T14:01:37.681Z,22.1
2024-05-09T14:02:37.787Z,22.1
2024-05-09T14:03:37.826Z,22.1
2024-05-09T14:04:38.013Z,22.3
2024-05-09T14:06:37.725Z,22.3
2024-05-09T14:07:37.645Z,22.1
2024-05-09T14:08:37.660Z,22.1
2024-05-09T14:09:37.700Z,22.1
2024-05-09T14:10:38.091Z,22.1
2024-05-09T14:11:41.228Z,22.1
2024-05-09T14:12:44.228Z,22.1
2024-05-09T14:13:46.920Z,22
2024-05-09T14:15:37.706Z,22
2024-05-09T14:16:37.788Z,22
2024-05-09T14:17:37.816Z,22
2024-05-09T14:19:37.646Z,22
2024-05-09T14:20:37.650Z,21.9
2024-05-09T14:21:37.668Z,21.9
2024-05-09T14:22:37.664Z,21.9
2024-05-09T14:23:37.648Z,21.9
2024-05-09T14:24:37.665Z,21.9
2024-05-09T14:25:38.838Z,21.9
2024-05-09T14:26:37.661Z,21.8
2024-05-09T14:27:37.687Z,21.8
2024-05-09T14:28:37.657Z,21.8
2024-05-09T14:29:37.649Z,21.6
2024-05-09T14:30:38.305Z,21.6
2024-05-09T14:32:41.324Z,21.5
2024-05-09T14:33:44.438Z,21.4
2024-05-09T14:34:47.104Z,21.4